Time;durP1;ratioP1;P1;durP2;ratioP2;P2;SDS_P1;SDS_P2;PMS_P1;PMS_P2;Temp;Humidity;BMP_temperature;BMP_pressure;BME280_temperature;BME280_humidity;BME280_pressure;Samples;Min_cycle;Max_cycle;Signal;HPM_P1;HPM_P2
2021/03/18 00:01:06;;;;;;;14.57;9.98;;;2.90;99.90;;;;;;5093270;28;20613;-76
2021/03/18 00:03:35;;;;;;;18.98;10.60;;;2.90;99.90;;;;;;5073631;28;20135;-76
2021/03/18 00:06:02;;;;;;;19.67;10.25;;;2.90;99.90;;;;;;5074488;28;20490;-76
2021/03/18 00:08:28;;;;;;;18.65;10.95;;;2.90;99.90;;;;;;5080965;28;20036;-76
2021/03/18 00:11:02;;;;;;;15.77;11.13;;;2.80;99.90;;;;;;5075361;28;20098;-76
2021/03/18 00:13:31;;;;;;;14.30;10.82;;;2.80;99.90;;;;;;5074150;28;20044;-74
2021/03/18 00:15:58;;;;;;;20.30;12.05;;;2.70;99.90;;;;;;5073710;28;20058;-76
2021/03/18 00:18:28;;;;;;;21.10;12.07;;;2.70;99.90;;;;;;5073051;28;20072;-75
2021/03/18 00:20:55;;;;;;;19.88;12.52;;;2.80;99.90;;;;;;5089530;28;20048;-76
2021/03/18 00:23:23;;;;;;;22.38;13.32;;;2.70;99.90;;;;;;5092185;28;20071;-77
2021/03/18 00:25:50;;;;;;;21.55;12.77;;;2.80;99.90;;;;;;5073070;28;20052;-76
2021/03/18 00:28:16;;;;;;;21.38;13.20;;;2.70;99.90;;;;;;5072198;28;20080;-77
2021/03/18 00:30:44;;;;;;;22.30;14.48;;;2.70;99.90;;;;;;5072136;28;20579;-77
2021/03/18 00:33:10;;;;;;;23.63;14.77;;;2.70;99.90;;;;;;5082887;28;20055;-77
2021/03/18 00:35:45;;;;;;;25.20;14.48;;;2.70;99.90;;;;;;5096316;28;20484;-76
2021/03/18 00:38:12;;;;;;;23.73;15.00;;;2.60;99.90;;;;;;5098715;28;20047;-77
2021/03/18 00:40:42;;;;;;;19.77;14.23;;;2.60;99.90;;;;;;5096119;28;20191;-76
2021/03/18 00:43:14;;;;;;;28.10;15.45;;;2.60;99.90;;;;;;5096025;28;20052;-77
2021/03/18 00:45:43;;;;;;;26.45;15.07;;;2.50;99.90;;;;;;5090946;28;20056;-76
2021/03/18 00:48:12;;;;;;;24.23;14.88;;;2.50;99.90;;;;;;5084017;28;20039;-77
2021/03/18 00:50:42;;;;;;;22.17;14.20;;;2.50;99.90;;;;;;5073971;28;20048;-77
2021/03/18 00:53:11;;;;;;;20.75;14.15;;;2.50;99.90;;;;;;5073835;28;20131;-76
2021/03/18 00:55:38;;;;;;;23.15;14.98;;;2.50;99.90;;;;;;5072267;28;20135;-75
2021/03/18 00:58:05;;;;;;;23.83;14.63;;;2.50;99.90;;;;;;5071478;28;20048;-76
2021/03/18 01:00:37;;;;;;;26.17;15.07;;;2.40;99.90;;;;;;5073955;28;20452;-76
2021/03/18 01:03:05;;;;;;;25.30;14.95;;;2.40;99.90;;;;;;5080509;28;20052;-76
2021/03/18 01:05:36;;;;;;;25.15;16.08;;;2.40;99.90;;;;;;5077933;28;20096;-76
2021/03/18 01:08:03;;;;;;;20.38;15.20;;;2.40;99.90;;;;;;5088400;28;20071;-75
2021/03/18 01:10:35;;;;;;;25.17;14.95;;;2.40;99.90;;;;;;5090891;28;20048;-76
2021/03/18 01:13:01;;;;;;;29.10;15.20;;;2.40;99.90;;;;;;5091797;28;20143;-73
2021/03/18 01:15:28;;;;;;;25.98;15.73;;;2.40;99.90;;;;;;5088682;28;20075;-76
2021/03/18 01:17:55;;;;;;;25.48;14.20;;;2.40;99.90;;;;;;5091622;28;20130;-76
2021/03/18 01:20:22;;;;;;;25.52;15.02;;;2.40;99.90;;;;;;5091609;28;20424;-75
2021/03/18 01:22:49;;;;;;;27.48;15.00;;;2.40;99.90;;;;;;5090620;28;20127;-77
2021/03/18 01:25:15;;;;;;;19.77;13.75;;;2.50;99.90;;;;;;5083964;28;20079;-77
2021/03/18 01:27:42;;;;;;;23.65;15.50;;;2.50;99.90;;;;;;5081054;28;20174;-75
2021/03/18 01:30:12;;;;;;;22.10;14.07;;;2.40;99.90;;;;;;5087452;28;20049;-76
2021/03/18 01:32:39;;;;;;;22.27;14.65;;;2.40;99.90;;;;;;5085381;28;20549;-76
2021/03/18 01:35:10;;;;;;;23.83;14.70;;;2.40;99.90;;;;;;5080154;28;20104;-77
2021/03/18 01:37:37;;;;;;;22.67;14.88;;;2.40;99.90;;;;;;5089396;28;20132;-77
2021/03/18 01:40:05;;;;;;;19.10;14.38;;;2.40;99.90;;;;;;5095546;28;20150;-76
2021/03/18 01:42:31;;;;;;;22.80;14.13;;;2.40;99.90;;;;;;5089129;28;20080;-75
2021/03/18 01:44:58;;;;;;;25.00;14.43;;;2.50;99.90;;;;;;5091437;28;20124;-76
2021/03/18 01:47:24;;;;;;;24.13;15.13;;;2.40;99.90;;;;;;5087319;28;20135;-77
2021/03/18 01:49:50;;;;;;;22.25;15.18;;;2.40;99.90;;;;;;5086361;28;20134;-77
2021/03/18 01:52:17;;;;;;;27.63;14.95;;;2.50;99.90;;;;;;5086844;28;20484;-76
2021/03/18 01:54:44;;;;;;;24.58;15.30;;;2.50;99.90;;;;;;5083562;28;20044;-76
2021/03/18 01:57:10;;;;;;;26.98;16.00;;;2.50;99.90;;;;;;5093414;28;20135;-76
2021/03/18 01:59:37;;;;;;;25.38;16.23;;;2.50;99.90;;;;;;5095965;28;20079;-75
2021/03/18 02:02:03;;;;;;;25.08;16.77;;;2.50;99.90;;;;;;5090403;28;20052;-76
2021/03/18 02:04:30;;;;;;;25.42;16.75;;;2.50;99.90;;;;;;5076369;28;20127;-77
2021/03/18 02:06:56;;;;;;;27.60;17.40;;;2.50;99.90;;;;;;5083760;28;20127;-76
2021/03/18 02:09:26;;;;;;;29.35;18.83;;;2.50;99.90;;;;;;5088140;28;20158;-76
2021/03/18 02:11:53;;;;;;;30.73;20.02;;;2.50;99.90;;;;;;5078441;28;20135;-77
2021/03/18 02:14:19;;;;;;;29.55;20.33;;;2.50;99.90;;;;;;5085674;28;20128;-76
2021/03/18 02:16:48;;;;;;;29.58;22.35;;;2.40;99.90;;;;;;5079927;28;20079;-77
2021/03/18 02:19:46;;;;;;;31.15;22.25;;;2.50;99.90;;;;;;5083567;28;20077;-77
2021/03/18 02:22:46;;;;;;;29.35;20.73;;;2.40;99.90;;;;;;5085937;28;20109;-76
2021/03/18 02:25:22;;;;;;;28.65;19.02;;;2.40;99.90;;;;;;5086449;28;20098;-75
2021/03/18 02:28:27;;;;;;;27.42;20.00;;;2.40;99.90;;;;;;5093570;28;20066;-75
2021/03/18 02:31:00;;;;;;;26.70;17.52;;;2.40;99.90;;;;;;5070688;28;20165;-79
2021/03/18 02:33:59;;;;;;;22.98;16.98;;;2.50;99.90;;;;;;5096324;28;20127;-78
2021/03/18 02:36:32;;;;;;;23.00;15.85;;;2.50;99.90;;;;;;5095395;28;20505;-76
2021/03/18 02:39:02;;;;;;;22.75;15.73;;;2.50;99.90;;;;;;5095615;28;20044;-76
2021/03/18 02:41:32;;;;;;;21.73;14.98;;;2.50;99.90;;;;;;5095493;28;20460;-76
2021/03/18 02:44:04;;;;;;;27.75;15.90;;;2.50;99.90;;;;;;5095993;28;20367;-77
2021/03/18 02:46:32;;;;;;;20.63;15.20;;;2.60;99.90;;;;;;5095658;28;20442;-77
2021/03/18 02:49:02;;;;;;;25.25;15.20;;;2.60;99.90;;;;;;5095400;28;20078;-75
2021/03/18 02:51:31;;;;;;;26.58;17.83;;;2.60;99.90;;;;;;5094941;28;20063;-77
2021/03/18 02:54:01;;;;;;;29.02;16.60;;;2.70;99.90;;;;;;5095051;28;20077;-77
2021/03/18 02:56:28;;;;;;;22.70;15.93;;;2.60;99.90;;;;;;5094660;28;20574;-77
2021/03/18 02:58:59;;;;;;;24.90;15.55;;;2.60;99.90;;;;;;5095273;28;20082;-76
2021/03/18 03:01:26;;;;;;;27.05;16.98;;;2.70;99.90;;;;;;5095290;28;20129;-76
2021/03/18 03:03:54;;;;;;;27.48;16.92;;;2.60;99.90;;;;;;5094512;28;20502;-76
2021/03/18 03:06:21;;;;;;;26.05;16.70;;;2.60;99.90;;;;;;5094636;28;20055;-76
2021/03/18 03:08:51;;;;;;;26.83;17.00;;;2.70;99.90;;;;;;5094326;28;20080;-77
2021/03/18 03:11:21;;;;;;;23.00;16.98;;;2.70;99.90;;;;;;5094228;28;20074;-77
2021/03/18 03:13:49;;;;;;;25.75;18.13;;;2.60;99.90;;;;;;5094346;28;20056;-78
2021/03/18 03:16:19;;;;;;;31.45;18.60;;;2.60;99.90;;;;;;5094208;28;20391;-77
2021/03/18 03:18:47;;;;;;;26.17;19.20;;;2.60;99.90;;;;;;5093790;28;20135;-77
2021/03/18 03:21:17;;;;;;;28.83;19.60;;;2.50;99.90;;;;;;5093672;28;20100;-77
2021/03/18 03:23:45;;;;;;;31.08;18.60;;;2.40;99.90;;;;;;5093592;28;20048;-76
2021/03/18 03:26:16;;;;;;;34.53;21.40;;;2.40;99.90;;;;;;5093288;28;20143;-75
2021/03/18 03:28:42;;;;;;;32.22;21.40;;;2.40;99.90;;;;;;5093560;28;20143;-76
2021/03/18 03:31:09;;;;;;;31.90;21.55;;;2.30;99.90;;;;;;5093730;28;20074;-77
2021/03/18 03:33:37;;;;;;;31.05;20.27;;;2.40;99.90;;;;;;5093425;28;20131;-73
2021/03/18 03:36:04;;;;;;;32.03;20.75;;;2.40;99.90;;;;;;5093507;28;20150;-77
2021/03/18 03:38:30;;;;;;;35.60;22.48;;;2.40;99.90;;;;;;5093377;28;20130;-77
2021/03/18 03:40:56;;;;;;;33.58;21.33;;;2.40;99.90;;;;;;5093837;28;20428;-77
2021/03/18 03:43:24;;;;;;;33.25;21.30;;;2.40;99.90;;;;;;5094267;28;20056;-76
2021/03/18 03:45:52;;;;;;;30.70;21.50;;;2.30;99.90;;;;;;5094120;28;20131;-77
2021/03/18 03:48:19;;;;;;;30.98;21.38;;;2.30;99.90;;;;;;5094161;28;20176;-76
2021/03/18 03:50:46;;;;;;;38.30;22.75;;;2.30;99.90;;;;;;5094213;28;20140;-77
2021/03/18 03:53:18;;;;;;;37.75;22.60;;;2.30;99.90;;;;;;5094467;28;20131;-76
2021/03/18 03:55:53;;;;;;;37.50;21.73;;;2.20;99.90;;;;;;5094361;28;20139;-76
2021/03/18 03:58:34;;;;;;;36.00;22.65;;;2.10;99.90;;;;;;5094228;28;20131;-76
2021/03/18 04:01:04;;;;;;;38.00;23.35;;;2.10;99.90;;;;;;5094159;28;20136;-76
2021/03/18 04:03:34;;;;;;;32.38;22.73;;;2.10;99.90;;;;;;5094077;28;20048;-77
2021/03/18 04:06:02;;;;;;;35.40;23.17;;;2.10;99.90;;;;;;5093406;28;20056;-77
2021/03/18 04:08:30;;;;;;;33.28;23.15;;;2.10;99.90;;;;;;5093057;28;20079;-77
2021/03/18 04:10:59;;;;;;;38.35;23.20;;;2.10;99.90;;;;;;5093336;28;20196;-77
2021/03/18 04:13:27;;;;;;;32.92;23.15;;;2.10;99.90;;;;;;5093439;28;20468;-77
2021/03/18 04:15:57;;;;;;;34.88;24.23;;;2.00;99.90;;;;;;5093077;28;20501;-77
2021/03/18 04:18:27;;;;;;;35.50;22.92;;;2.00;99.90;;;;;;5092742;28;20044;-76
2021/03/18 04:20:55;;;;;;;37.58;23.80;;;2.00;99.90;;;;;;5092877;28;20142;-77
2021/03/18 04:23:22;;;;;;;34.28;23.75;;;2.00;99.90;;;;;;5092715;28;20048;-78
2021/03/18 04:25:49;;;;;;;36.53;24.70;;;2.00;99.90;;;;;;5092696;28;20130;-76
2021/03/18 04:28:17;;;;;;;38.30;25.90;;;2.10;99.90;;;;;;5092431;28;20040;-77
2021/03/18 04:30:44;;;;;;;36.63;24.73;;;2.10;99.90;;;;;;5093207;28;20134;-77
2021/03/18 04:33:13;;;;;;;35.05;24.02;;;2.10;99.90;;;;;;5092847;28;20521;-77
2021/03/18 04:35:41;;;;;;;33.03;22.73;;;2.20;99.90;;;;;;5149132;22;20279;-79
2021/03/18 04:38:08;;;;;;;34.28;23.35;;;2.20;99.90;;;;;;5117118;28;20471;-78
2021/03/18 04:40:35;;;;;;;32.72;22.88;;;2.10;99.90;;;;;;5118409;28;20079;-78
2021/03/18 04:43:03;;;;;;;35.15;24.80;;;2.10;99.90;;;;;;5122446;28;20107;-79
2021/03/18 04:45:31;;;;;;;33.33;24.08;;;2.00;99.90;;;;;;5121352;28;20078;-79
2021/03/18 04:48:00;;;;;;;35.78;24.23;;;2.10;99.90;;;;;;5121295;28;20421;-79
2021/03/18 04:50:29;;;;;;;44.03;25.40;;;2.10;99.90;;;;;;5115129;28;20139;-78
2021/03/18 04:52:56;;;;;;;38.15;25.10;;;2.10;99.90;;;;;;5114941;28;20051;-78
2021/03/18 04:55:23;;;;;;;38.47;24.48;;;2.10;99.90;;;;;;5113948;28;20136;-78
2021/03/18 04:57:56;;;;;;;38.85;25.17;;;2.20;99.90;;;;;;5112942;28;20083;-79
2021/03/18 05:00:22;;;;;;;;;;;2.20;99.90;;;;;;5114661;28;20043;-79
2021/03/18 05:02:50;;;;;;;31.52;22.35;;;2.20;99.90;;;;;;5114639;28;20078;-79
2021/03/18 05:05:19;;;;;;;35.60;22.77;;;2.30;99.90;;;;;;5114472;28;20051;-79
2021/03/18 05:07:49;;;;;;;32.15;22.10;;;2.30;99.90;;;;;;5114937;28;20039;-80
2021/03/18 05:10:17;;;;;;;37.50;22.17;;;2.30;99.90;;;;;;5114721;28;20086;-80
2021/03/18 05:12:44;;;;;;;35.53;23.60;;;2.30;99.90;;;;;;5113871;28;20048;-80
2021/03/18 05:15:14;;;;;;;33.33;23.15;;;2.40;99.90;;;;;;5114558;28;20061;-80
2021/03/18 05:17:42;;;;;;;35.17;23.45;;;2.40;99.90;;;;;;5114025;28;20451;-80
2021/03/18 05:20:11;;;;;;;35.13;23.10;;;2.40;99.90;;;;;;5115458;28;20048;-79
2021/03/18 05:22:39;;;;;;;30.73;23.05;;;2.50;99.90;;;;;;5114722;28;20107;-80
2021/03/18 05:25:08;;;;;;;34.95;22.85;;;2.40;99.90;;;;;;5114488;28;20157;-80
2021/03/18 05:27:36;;;;;;;33.90;23.85;;;2.40;99.90;;;;;;5118668;28;20115;-82
2021/03/18 05:30:03;;;;;;;34.30;23.52;;;2.30;99.90;;;;;;5119947;28;20130;-83
2021/03/18 05:32:30;;;;;;;39.22;23.38;;;2.40;99.90;;;;;;5119087;28;20083;-82
2021/03/18 05:34:56;;;;;;;31.17;22.38;;;2.40;99.90;;;;;;5118106;28;20097;-82
2021/03/18 05:37:23;;;;;;;34.30;22.08;;;2.40;99.90;;;;;;5117542;28;20099;-80
2021/03/18 05:39:49;;;;;;;35.33;23.70;;;2.40;99.90;;;;;;5119184;28;20149;-81
2021/03/18 05:42:17;;;;;;;33.42;22.27;;;2.40;99.90;;;;;;5119208;28;20043;-81
2021/03/18 05:44:43;;;;;;;35.38;22.25;;;2.40;99.90;;;;;;5118670;28;20130;-81
2021/03/18 05:47:11;;;;;;;33.97;23.17;;;2.40;99.90;;;;;;5117902;28;20085;-81
2021/03/18 05:49:38;;;;;;;30.75;22.88;;;2.40;99.90;;;;;;5116037;28;20126;-80
2021/03/18 05:52:09;;;;;;;33.38;22.63;;;2.40;99.90;;;;;;5122694;28;20082;-80
2021/03/18 05:54:41;;;;;;;37.13;22.55;;;2.50;99.90;;;;;;5115771;28;20059;-80
2021/03/18 05:57:10;;;;;;;34.83;23.40;;;2.50;99.90;;;;;;5114891;28;20138;-80
2021/03/18 05:59:38;;;;;;;38.20;22.90;;;2.50;99.90;;;;;;5114833;28;20134;-81
2021/03/18 06:02:04;;;;;;;30.67;23.25;;;2.50;99.90;;;;;;5114708;28;20044;-80
2021/03/18 06:04:31;;;;;;;35.75;22.92;;;2.50;99.90;;;;;;5116965;28;20056;-80
2021/03/18 06:06:58;;;;;;;36.22;24.05;;;2.50;99.90;;;;;;5118272;28;20493;-82
2021/03/18 06:09:24;;;;;;;34.47;22.48;;;2.50;99.90;;;;;;5118868;28;20054;-81
2021/03/18 06:11:51;;;;;;;34.20;23.98;;;2.50;99.90;;;;;;5121346;28;20058;-80
2021/03/18 06:14:17;;;;;;;32.25;22.90;;;2.60;99.90;;;;;;5121737;28;20120;-81
2021/03/18 06:16:46;;;;;;;36.38;22.25;;;2.70;99.90;;;;;;5121017;28;20103;-81
2021/03/18 06:19:13;;;;;;;43.22;24.42;;;2.70;99.90;;;;;;5121843;28;20521;-81
2021/03/18 06:21:50;;;;;;;43.30;24.45;;;2.70;99.90;;;;;;5122571;28;20116;-83
2021/03/18 06:24:16;;;;;;;37.53;25.70;;;2.70;99.90;;;;;;5121622;28;20111;-80
2021/03/18 06:26:42;;;;;;;37.05;23.98;;;2.80;99.90;;;;;;5122648;28;20077;-82
2021/03/18 06:29:31;;;;;;;32.00;22.70;;;2.90;99.90;;;;;;5121910;28;20068;-82
2021/03/18 06:32:01;;;;;;;41.72;23.52;;;2.90;99.90;;;;;;5124724;28;20055;-81
2021/03/18 06:34:39;;;;;;;35.92;22.30;;;2.90;99.90;;;;;;5126160;28;20062;-81
2021/03/18 06:37:05;;;;;;;29.85;21.73;;;3.00;99.90;;;;;;5116022;28;20171;-81
2021/03/18 06:39:32;;;;;;;38.78;22.60;;;3.00;99.90;;;;;;5099518;28;20075;-81
2021/03/18 06:42:00;;;;;;;44.15;23.42;;;3.00;99.90;;;;;;5101286;28;20051;-80
2021/03/18 06:44:28;;;;;;;35.05;23.00;;;3.00;99.90;;;;;;5081577;28;20048;-80
2021/03/18 06:46:56;;;;;;;33.80;22.33;;;3.00;99.90;;;;;;5080976;28;20056;-81
2021/03/18 06:49:25;;;;;;;31.40;21.60;;;3.10;99.90;;;;;;5076952;28;20135;-81
2021/03/18 06:52:03;;;;;;;34.25;22.33;;;3.20;99.90;;;;;;5089428;28;20052;-81
2021/03/18 06:54:33;;;;;;;32.55;22.25;;;3.30;99.90;;;;;;5082826;28;20068;-81
2021/03/18 06:57:02;;;;;;;32.67;21.98;;;3.40;99.90;;;;;;5077634;28;20147;-80
2021/03/18 06:59:30;;;;;;;35.10;23.92;;;3.50;99.90;;;;;;5082322;28;20091;-81
2021/03/18 07:02:04;;;;;;;39.95;23.83;;;3.40;99.90;;;;;;5080965;28;20127;-81
2021/03/18 07:04:36;;;;;;;32.67;22.45;;;3.50;99.90;;;;;;5081101;28;20101;-80
2021/03/18 07:07:03;;;;;;;32.87;23.27;;;3.60;99.90;;;;;;5082315;28;20091;-81
2021/03/18 07:09:30;;;;;;;34.22;22.80;;;3.60;99.90;;;;;;5080927;28;20506;-81
2021/03/18 07:12:01;;;;;;;40.83;24.00;;;3.60;99.90;;;;;;5080462;28;20174;-81
2021/03/18 07:14:35;;;;;;;36.70;22.67;;;3.80;99.90;;;;;;5079514;28;20104;-81
2021/03/18 07:17:02;;;;;;;42.08;23.48;;;3.90;99.90;;;;;;5078121;28;20131;-81
2021/03/18 07:19:29;;;;;;;31.42;21.52;;;4.00;99.90;;;;;;5078470;28;20048;-81
2021/03/18 07:21:58;;;;;;;38.08;23.88;;;4.10;99.90;;;;;;5080494;28;20482;-82
2021/03/18 07:24:30;;;;;;;35.80;24.33;;;4.10;99.90;;;;;;5081274;28;20563;-81
2021/03/18 07:26:59;;;;;;;36.25;22.55;;;4.10;99.90;;;;;;5079459;28;20059;-80
2021/03/18 07:29:29;;;;;;;41.08;24.65;;;4.20;99.90;;;;;;5111243;28;20135;-82
2021/03/18 07:31:57;;;;;;;35.88;25.10;;;4.20;99.90;;;;;;5116322;28;20442;-78
2021/03/18 07:34:25;;;;;;;43.30;26.95;;;4.20;99.90;;;;;;5116701;28;20589;-79
2021/03/18 07:36:56;;;;;;;38.58;26.70;;;4.20;99.90;;;;;;5117371;28;20143;-80
2021/03/18 07:39:24;;;;;;;38.53;26.45;;;4.20;99.90;;;;;;5116402;28;20063;-79
2021/03/18 07:41:52;;;;;;;44.90;27.42;;;4.30;99.90;;;;;;5114731;28;20115;-77
2021/03/18 07:44:23;;;;;;;42.53;27.75;;;4.40;99.90;;;;;;5114595;28;20052;-80
2021/03/18 07:46:50;;;;;;;51.58;31.77;;;4.50;99.90;;;;;;5115502;28;20059;-79
2021/03/18 07:49:19;;;;;;;59.88;31.73;;;4.50;99.90;;;;;;5115131;28;20515;-78
2021/03/18 07:51:49;;;;;;;53.45;33.15;;;4.50;99.90;;;;;;5126896;28;20180;-80
2021/03/18 07:54:18;;;;;;;54.53;32.72;;;4.50;99.90;;;;;;5123886;28;20054;-78
2021/03/18 07:56:47;;;;;;;52.10;32.65;;;4.60;99.90;;;;;;5115532;28;20144;-78
2021/03/18 07:59:14;;;;;;;62.83;33.58;;;4.60;99.90;;;;;;5116908;28;20044;-78
2021/03/18 08:01:43;;;;;;;61.13;35.30;;;4.70;99.90;;;;;;5121035;28;20115;-79
2021/03/18 08:04:12;;;;;;;63.83;37.28;;;4.70;99.90;;;;;;5121138;28;20146;-79
2021/03/18 08:06:52;;;;;;;61.30;36.78;;;4.80;99.90;;;;;;5120233;28;20462;-78
2021/03/18 08:09:58;;;;;;;58.80;33.47;;;4.70;99.90;;;;;;5116907;28;20047;-79
2021/03/18 08:12:47;;;;;;;62.75;37.03;;;4.70;99.90;;;;;;5116211;28;20086;-80
2021/03/18 08:17:54;;;;;;;69.47;36.83;;;4.90;99.90;;;;;;5087362;28;20073;-82
2021/03/18 08:20:59;;;;;;;68.07;40.10;;;5.00;99.90;;;;;;5064907;28;20056;-82
2021/03/18 08:23:43;;;;;;;65.25;38.97;;;4.90;99.90;;;;;;5065524;28;20067;-81
2021/03/18 08:26:42;;;;;;;60.38;35.88;;;4.90;99.90;;;;;;5066401;28;20132;-81
2021/03/18 08:29:12;;;;;;;72.60;38.03;;;5.00;99.90;;;;;;5105440;22;20110;-74
2021/03/18 08:31:59;;;;;;;72.20;40.20;;;5.00;99.90;;;;;;5103291;28;20481;-72
2021/03/18 08:34:47;;;;;;;62.00;36.83;;;5.00;99.90;;;;;;5112934;28;20126;-77
2021/03/18 08:37:15;;;;;;;64.35;37.40;;;5.20;99.90;;;;;;5112298;28;20047;-73
2021/03/18 08:39:48;;;;;;;69.82;40.15;;;5.20;99.90;;;;;;5096002;28;20076;-75
2021/03/18 08:42:35;;;;;;;66.32;37.00;;;5.20;99.90;;;;;;5093085;28;20182;-74
2021/03/18 08:45:09;;;;;;;60.35;36.10;;;5.40;99.90;;;;;;5093141;28;20516;-75
2021/03/18 08:47:37;;;;;;;55.83;34.58;;;5.30;99.90;;;;;;5093088;28;20052;-76
2021/03/18 08:50:06;;;;;;;58.03;35.03;;;5.40;99.90;;;;;;5093060;28;20052;-76
2021/03/18 08:52:41;;;;;;;56.90;37.20;;;5.50;99.90;;;;;;5093980;28;20058;-76
2021/03/18 08:55:11;;;;;;;198.82;46.08;;;5.30;99.90;;;;;;5093327;28;20546;-76
2021/03/18 08:57:38;;;;;;;57.15;36.28;;;5.30;99.90;;;;;;5092710;28;20131;-74
2021/03/18 09:00:13;;;;;;;57.35;36.38;;;5.30;99.90;;;;;;5092147;28;20130;-75
2021/03/18 09:02:40;;;;;;;53.33;33.80;;;5.50;99.90;;;;;;5092635;28;20084;-75
2021/03/18 09:05:11;;;;;;;44.85;30.17;;;5.70;99.90;;;;;;5092180;28;20066;-73
2021/03/18 09:07:38;;;;;;;43.83;29.98;;;5.80;99.90;;;;;;5091506;28;20107;-74
2021/03/18 09:10:12;;;;;;;47.13;31.48;;;5.80;99.90;;;;;;5091656;28;20131;-74
2021/03/18 09:12:43;;;;;;;47.78;31.80;;;5.80;99.90;;;;;;5091592;28;20069;-75
2021/03/18 09:15:17;;;;;;;50.45;32.30;;;5.90;99.90;;;;;;5091957;28;20076;-75
2021/03/18 09:17:45;;;;;;;51.65;32.88;;;6.00;99.90;;;;;;5091412;28;20044;-75
2021/03/18 09:20:14;;;;;;;43.63;30.63;;;6.10;99.90;;;;;;5091716;28;20158;-74
2021/03/18 09:22:40;;;;;;;47.33;30.65;;;6.20;99.90;;;;;;5091785;28;20127;-75
2021/03/18 09:25:08;;;;;;;49.53;30.77;;;6.30;99.90;;;;;;5091542;28;20525;-76
2021/03/18 09:27:36;;;;;;;42.35;29.48;;;6.40;99.90;;;;;;5091720;28;20056;-74
2021/03/18 09:30:25;;;;;;;42.20;29.63;;;6.50;99.90;;;;;;5091439;28;20075;-76
2021/03/18 09:32:53;;;;;;;45.42;29.75;;;6.70;99.90;;;;;;5091894;28;20127;-75
2021/03/18 09:35:20;;;;;;;39.80;28.80;;;6.90;99.90;;;;;;5091874;28;20135;-76
2021/03/18 09:37:47;;;;;;;39.90;28.58;;;7.00;99.90;;;;;;5091277;28;20415;-74
2021/03/18 09:40:16;;;;;;;44.00;31.08;;;7.20;99.90;;;;;;5091595;28;20044;-73
2021/03/18 09:42:43;;;;;;;42.83;29.13;;;7.20;99.90;;;;;;5092471;28;20578;-75
2021/03/18 09:45:18;;;;;;;47.13;31.20;;;7.40;99.90;;;;;;5095522;28;20093;-77
2021/03/18 09:47:49;;;;;;;47.95;30.50;;;7.40;99.90;;;;;;5095588;28;20075;-76
2021/03/18 09:50:17;;;;;;;40.80;29.35;;;7.40;99.90;;;;;;5095559;28;20052;-74
2021/03/18 09:52:43;;;;;;;42.65;30.92;;;7.30;99.90;;;;;;5095900;28;20052;-75
2021/03/18 09:55:12;;;;;;;50.97;29.35;;;7.20;99.90;;;;;;5095263;28;20135;-74
2021/03/18 09:57:39;;;;;;;43.70;29.08;;;7.30;99.90;;;;;;5094772;28;20048;-75
2021/03/18 10:00:08;;;;;;;42.92;27.75;;;7.40;99.90;;;;;;5095432;28;20453;-74
2021/03/18 10:02:34;;;;;;;47.45;31.08;;;7.50;99.90;;;;;;5095218;28;20051;-76
2021/03/18 10:05:02;;;;;;;40.90;27.08;;;7.70;99.90;;;;;;5095226;28;20135;-76
2021/03/18 10:07:29;;;;;;;36.10;25.42;;;7.70;99.90;;;;;;5095131;28;20048;-74
2021/03/18 10:09:56;;;;;;;45.72;31.02;;;7.70;99.90;;;;;;5095075;28;20479;-75
2021/03/18 10:12:26;;;;;;;46.50;28.88;;;7.60;99.90;;;;;;5096379;28;20090;-76
2021/03/18 10:14:55;;;;;;;45.50;28.70;;;7.70;99.90;;;;;;5100864;28;20112;-76
2021/03/18 10:17:26;;;;;;;44.58;30.02;;;7.60;99.90;;;;;;5099157;28;20102;-74
2021/03/18 10:19:58;;;;;;;42.63;30.45;;;7.60;99.90;;;;;;5095785;28;20055;-75
2021/03/18 10:22:31;;;;;;;45.17;30.27;;;7.60;99.90;;;;;;5094229;28;20056;-75
2021/03/18 10:25:07;;;;;;;52.47;30.08;;;7.60;99.90;;;;;;5094381;28;20142;-76
2021/03/18 10:27:36;;;;;;;39.67;28.98;;;7.60;99.90;;;;;;5094322;28;20230;-74
2021/03/18 10:30:06;;;;;;;35.10;23.58;;;7.60;99.90;;;;;;5094600;28;20101;-73
2021/03/18 10:32:32;;;;;;;38.40;25.60;;;7.80;99.90;;;;;;5094608;28;20465;-76
2021/03/18 10:34:58;;;;;;;36.10;23.10;;;7.80;99.90;;;;;;5094462;28;20142;-75
2021/03/18 10:37:31;;;;;;;31.20;18.98;;;8.00;99.90;;;;;;5094130;28;20114;-74
2021/03/18 10:40:19;;;;;;;27.48;17.50;;;8.00;99.90;;;;;;5094388;28;20055;-73
2021/03/18 10:42:49;;;;;;;29.02;18.30;;;8.10;99.90;;;;;;5094666;28;20063;-75
2021/03/18 10:45:30;;;;;;;28.25;19.58;;;8.10;99.90;;;;;;5094483;28;20058;-74
2021/03/18 10:48:00;;;;;;;35.92;20.77;;;8.20;99.90;;;;;;5094121;28;20497;-75
2021/03/18 10:50:30;;;;;;;27.25;18.83;;;8.20;99.90;;;;;;5094247;28;20146;-75
2021/03/18 10:53:04;;;;;;;22.88;15.35;;;8.30;99.90;;;;;;5094216;28;20056;-72
2021/03/18 10:55:33;;;;;;;23.52;14.88;;;8.50;99.90;;;;;;5093478;28;20052;-76
2021/03/18 10:58:02;;;;;;;25.15;14.77;;;8.50;99.90;;;;;;5093903;28;20066;-73
2021/03/18 11:00:30;;;;;;;21.80;14.57;;;8.40;99.90;;;;;;5094144;28;20477;-74
2021/03/18 11:03:03;;;;;;;21.75;13.93;;;8.40;99.90;;;;;;5093785;28;20501;-74
2021/03/18 11:05:37;;;;;;;;;;;8.50;99.90;;;;;;5094466;28;20056;-74
2021/03/18 11:08:06;;;;;;;21.55;14.15;;;8.50;99.90;;;;;;5093541;28;20403;-74
2021/03/18 11:10:39;;;;;;;25.45;14.55;;;8.60;99.90;;;;;;5094362;28;20056;-74
2021/03/18 11:13:07;;;;;;;25.10;12.48;;;8.60;99.90;;;;;;5094007;28;20072;-74
2021/03/18 11:15:45;;;;;;;16.75;10.10;;;8.80;99.90;;;;;;5093634;28;20136;-74
2021/03/18 11:18:11;;;;;;;18.63;10.30;;;8.90;99.90;;;;;;5093103;28;20554;-76
2021/03/18 11:20:40;;;;;;;19.70;11.38;;;9.00;99.90;;;;;;5088331;28;20091;-74
2021/03/18 11:23:09;;;;;;;19.23;11.40;;;8.90;99.90;;;;;;5086114;28;20127;-74
2021/03/18 11:25:36;;;;;;;19.70;10.65;;;8.90;99.90;;;;;;5083640;28;20052;-74
2021/03/18 11:28:02;;;;;;;16.95;10.68;;;8.90;99.90;;;;;;5081682;28;20072;-74
2021/03/18 11:30:35;;;;;;;17.90;11.82;;;8.90;99.90;;;;;;5082952;28;20127;-74
2021/03/18 11:33:14;;;;;;;16.85;11.80;;;8.70;99.90;;;;;;5082167;28;20086;-74
2021/03/18 11:35:42;;;;;;;15.60;11.18;;;8.70;99.90;;;;;;5072716;28;20202;-75
2021/03/18 11:38:10;;;;;;;22.15;9.05;;;8.80;99.90;;;;;;5072477;28;20045;-75
2021/03/18 11:40:36;;;;;;;20.38;8.63;;;8.80;99.90;;;;;;5072846;28;20425;-76
2021/03/18 11:43:04;;;;;;;20.48;8.98;;;8.90;99.90;;;;;;5072962;28;20068;-76
2021/03/18 11:45:31;;;;;;;24.35;9.90;;;9.00;99.90;;;;;;5072814;28;20482;-77
2021/03/18 11:47:57;;;;;;;13.18;8.73;;;9.10;99.90;;;;;;5072578;28;20079;-75
2021/03/18 11:50:24;;;;;;;14.65;9.15;;;9.20;99.90;;;;;;5071437;28;20520;-75
2021/03/18 11:52:50;;;;;;;18.23;9.45;;;9.10;99.90;;;;;;5072689;28;20074;-74
2021/03/18 11:55:17;;;;;;;14.70;9.52;;;9.00;99.90;;;;;;5072768;28;20076;-74
2021/03/18 11:57:44;;;;;;;15.80;8.73;;;9.00;99.90;;;;;;5072082;28;20084;-75
2021/03/18 12:00:12;;;;;;;13.80;9.15;;;8.80;99.90;;;;;;5072615;28;20127;-75
2021/03/18 12:02:38;;;;;;;16.10;10.27;;;8.90;99.90;;;;;;5072569;28;20088;-74
2021/03/18 12:05:06;;;;;;;16.27;10.10;;;9.00;99.90;;;;;;5072571;28;20125;-75
2021/03/18 12:07:33;;;;;;;16.10;10.65;;;9.00;99.90;;;;;;5072182;28;20054;-73
2021/03/18 12:09:59;;;;;;;19.38;10.30;;;8.90;99.90;;;;;;5072376;28;20135;-75
2021/03/18 12:12:27;;;;;;;18.83;11.88;;;9.00;99.90;;;;;;5072338;28;20236;-75
2021/03/18 12:14:54;;;;;;;18.48;11.65;;;9.00;99.90;;;;;;5072420;28;20055;-74
2021/03/18 12:17:20;;;;;;;20.52;11.80;;;8.90;99.90;;;;;;5071810;28;20104;-75
2021/03/18 12:19:47;;;;;;;22.38;12.23;;;8.90;99.90;;;;;;5071738;28;20044;-73
2021/03/18 12:22:13;;;;;;;20.05;13.00;;;9.00;99.90;;;;;;5072541;28;20201;-77
2021/03/18 12:24:40;;;;;;;17.67;12.10;;;9.20;99.90;;;;;;5071985;28;20055;-76
2021/03/18 12:27:07;;;;;;;20.80;11.40;;;9.40;99.90;;;;;;5071815;28;20059;-76
2021/03/18 12:29:34;;;;;;;22.23;11.68;;;9.50;99.90;;;;;;5071283;28;20136;-77
2021/03/18 12:32:00;;;;;;;24.67;11.48;;;9.60;99.90;;;;;;5071502;28;20097;-76
2021/03/18 12:34:27;;;;;;;15.00;10.25;;;9.60;99.90;;;;;;5071501;28;20131;-73
2021/03/18 12:36:53;;;;;;;13.95;10.13;;;9.60;99.90;;;;;;5071041;28;20048;-76
2021/03/18 12:39:19;;;;;;;18.02;9.27;;;9.60;99.90;;;;;;5079857;28;20122;-75
2021/03/18 12:41:46;;;;;;;15.43;10.15;;;9.50;99.90;;;;;;5088290;28;20127;-78
2021/03/18 12:44:12;;;;;;;15.45;9.77;;;9.40;99.90;;;;;;5071184;28;20459;-75
2021/03/18 12:46:39;;;;;;;16.27;9.77;;;9.20;99.90;;;;;;5070891;28;20151;-77
2021/03/18 12:49:07;;;;;;;21.92;10.32;;;9.30;99.90;;;;;;5071393;28;20406;-75
2021/03/18 12:51:34;;;;;;;15.82;11.00;;;9.30;99.90;;;;;;5070994;28;20053;-77
2021/03/18 12:54:01;;;;;;;12.93;9.55;;;9.40;99.90;;;;;;5071999;28;20190;-76